Terminal Aerodrome Forecast
Issued by NWS

Home | Current Version | Previous Version | Text Only | Print | Product List | Glossary On
Versions: 1 2 3 4 5 6 7 8 9 10 11 12 13 14 15 16 17 18
000
FTUS43 KPAH 222300
TAFCGI
TAF
KCGI 222338Z 2300/2324 17007KT P6SM BKN080
     FM231100 13009KT P6SM -SHRA SCT010 BKN025
     FM231600 15012KT 3SM -SHRA BR SCT005 OVC010=

USA.gov is the U.S. government's official web portal to all federal, state and local government web resources and services.